sensor_id;sensor_type;location;lat;lon;timestamp;P1;durP1;ratioP1;P2;durP2;ratioP2
57746;SDS011;43580;44.014;20.466;2022-10-18T00:01:02;80.38;;;48.33;;
57746;SDS011;43580;44.014;20.466;2022-10-18T00:03:30;73.78;;;45.47;;
57746;SDS011;43580;44.014;20.466;2022-10-18T00:05:57;72.50;;;42.85;;
57746;SDS011;43580;44.014;20.466;2022-10-18T00:08:23;79.40;;;47.33;;
57746;SDS011;43580;44.014;20.466;2022-10-18T00:10:49;66.63;;;42.38;;
57746;SDS011;43580;44.014;20.466;2022-10-18T00:13:15;65.78;;;38.05;;
57746;SDS011;43580;44.014;20.466;2022-10-18T00:15:52;61.63;;;34.90;;
57746;SDS011;43580;44.014;20.466;2022-10-18T00:18:18;55.78;;;32.88;;
57746;SDS011;43580;44.014;20.466;2022-10-18T00:20:44;75.40;;;38.25;;
57746;SDS011;43580;44.014;20.466;2022-10-18T00:23:11;51.28;;;29.60;;
57746;SDS011;43580;44.014;20.466;2022-10-18T00:25:37;55.15;;;29.73;;
57746;SDS011;43580;44.014;20.466;2022-10-18T00:28:03;55.80;;;32.47;;
57746;SDS011;43580;44.014;20.466;2022-10-18T00:30:29;54.08;;;30.30;;
57746;SDS011;43580;44.014;20.466;2022-10-18T00:32:55;49.83;;;29.75;;
57746;SDS011;43580;44.014;20.466;2022-10-18T00:35:21;51.10;;;30.30;;
57746;SDS011;43580;44.014;20.466;2022-10-18T00:37:47;59.75;;;34.20;;
57746;SDS011;43580;44.014;20.466;2022-10-18T00:40:13;59.50;;;32.72;;
57746;SDS011;43580;44.014;20.466;2022-10-18T00:42:39;101.45;;;51.60;;
57746;SDS011;43580;44.014;20.466;2022-10-18T00:45:19;64.20;;;42.75;;
57746;SDS011;43580;44.014;20.466;2022-10-18T00:47:46;60.13;;;34.15;;
57746;SDS011;43580;44.014;20.466;2022-10-18T00:50:13;58.13;;;32.53;;
57746;SDS011;43580;44.014;20.466;2022-10-18T00:52:44;52.20;;;33.33;;
57746;SDS011;43580;44.014;20.466;2022-10-18T00:55:11;57.97;;;36.08;;
57746;SDS011;43580;44.014;20.466;2022-10-18T00:57:38;57.55;;;35.67;;
57746;SDS011;43580;44.014;20.466;2022-10-18T01:00:05;100.30;;;58.72;;
57746;SDS011;43580;44.014;20.466;2022-10-18T01:02:34;47.72;;;28.90;;
57746;SDS011;43580;44.014;20.466;2022-10-18T01:05:03;47.20;;;28.50;;
57746;SDS011;43580;44.014;20.466;2022-10-18T01:10:02;59.15;;;32.28;;
57746;SDS011;43580;44.014;20.466;2022-10-18T01:12:34;40.42;;;23.00;;
57746;SDS011;43580;44.014;20.466;2022-10-18T01:15:13;50.72;;;31.25;;
57746;SDS011;43580;44.014;20.466;2022-10-18T01:25:38;50.35;;;30.35;;
57746;SDS011;43580;44.014;20.466;2022-10-18T01:33:04;79.65;;;45.33;;
57746;SDS011;43580;44.014;20.466;2022-10-18T01:35:34;39.28;;;24.20;;
57746;SDS011;43580;44.014;20.466;2022-10-18T01:38:03;73.05;;;35.65;;
57746;SDS011;43580;44.014;20.466;2022-10-18T01:40:30;74.45;;;34.80;;
57746;SDS011;43580;44.014;20.466;2022-10-18T01:42:58;71.35;;;35.30;;
57746;SDS011;43580;44.014;20.466;2022-10-18T01:45:24;54.40;;;30.88;;
57746;SDS011;43580;44.014;20.466;2022-10-18T01:47:53;51.58;;;28.90;;
57746;SDS011;43580;44.014;20.466;2022-10-18T01:50:29;50.75;;;29.70;;
57746;SDS011;43580;44.014;20.466;2022-10-18T01:52:55;34.67;;;21.85;;
57746;SDS011;43580;44.014;20.466;2022-10-18T01:55:23;40.28;;;21.88;;
57746;SDS011;43580;44.014;20.466;2022-10-18T02:00:25;44.08;;;23.42;;
57746;SDS011;43580;44.014;20.466;2022-10-18T02:02:59;40.45;;;21.80;;
57746;SDS011;43580;44.014;20.466;2022-10-18T02:05:29;38.63;;;22.27;;
57746;SDS011;43580;44.014;20.466;2022-10-18T02:08:05;38.38;;;22.02;;
57746;SDS011;43580;44.014;20.466;2022-10-18T02:10:37;39.03;;;23.50;;
57746;SDS011;43580;44.014;20.466;2022-10-18T02:13:04;38.15;;;22.75;;
57746;SDS011;43580;44.014;20.466;2022-10-18T02:15:40;37.15;;;23.00;;
57746;SDS011;43580;44.014;20.466;2022-10-18T02:18:11;39.83;;;23.42;;
57746;SDS011;43580;44.014;20.466;2022-10-18T02:20:39;44.10;;;25.83;;
57746;SDS011;43580;44.014;20.466;2022-10-18T02:23:06;47.13;;;26.77;;
57746;SDS011;43580;44.014;20.466;2022-10-18T02:25:33;44.30;;;25.00;;
57746;SDS011;43580;44.014;20.466;2022-10-18T02:28:02;40.50;;;23.77;;
57746;SDS011;43580;44.014;20.466;2022-10-18T02:30:36;41.58;;;23.55;;
57746;SDS011;43580;44.014;20.466;2022-10-18T02:33:03;42.45;;;24.83;;
57746;SDS011;43580;44.014;20.466;2022-10-18T02:35:34;40.03;;;24.05;;
57746;SDS011;43580;44.014;20.466;2022-10-18T02:38:06;41.25;;;24.90;;
57746;SDS011;43580;44.014;20.466;2022-10-18T02:40:34;45.25;;;24.35;;
57746;SDS011;43580;44.014;20.466;2022-10-18T02:43:00;43.13;;;24.92;;
57746;SDS011;43580;44.014;20.466;2022-10-18T02:45:26;44.90;;;26.63;;
57746;SDS011;43580;44.014;20.466;2022-10-18T02:47:53;47.30;;;27.67;;
57746;SDS011;43580;44.014;20.466;2022-10-18T02:50:19;53.17;;;30.20;;
57746;SDS011;43580;44.014;20.466;2022-10-18T02:52:45;56.60;;;34.58;;
57746;SDS011;43580;44.014;20.466;2022-10-18T02:55:11;52.83;;;29.00;;
57746;SDS011;43580;44.014;20.466;2022-10-18T02:57:39;44.42;;;27.90;;
57746;SDS011;43580;44.014;20.466;2022-10-18T03:00:05;48.33;;;27.88;;
57746;SDS011;43580;44.014;20.466;2022-10-18T03:02:32;48.88;;;29.25;;
57746;SDS011;43580;44.014;20.466;2022-10-18T03:04:58;51.58;;;32.78;;
57746;SDS011;43580;44.014;20.466;2022-10-18T03:07:24;47.85;;;31.38;;
57746;SDS011;43580;44.014;20.466;2022-10-18T03:09:50;45.50;;;28.42;;
57746;SDS011;43580;44.014;20.466;2022-10-18T03:12:16;48.30;;;29.10;;
57746;SDS011;43580;44.014;20.466;2022-10-18T03:14:42;44.10;;;27.40;;
57746;SDS011;43580;44.014;20.466;2022-10-18T03:17:10;74.85;;;43.85;;
57746;SDS011;43580;44.014;20.466;2022-10-18T03:19:36;58.25;;;29.98;;
57746;SDS011;43580;44.014;20.466;2022-10-18T03:22:03;63.25;;;37.00;;
57746;SDS011;43580;44.014;20.466;2022-10-18T03:24:29;48.53;;;29.08;;
57746;SDS011;43580;44.014;20.466;2022-10-18T03:26:55;46.90;;;28.15;;
57746;SDS011;43580;44.014;20.466;2022-10-18T03:29:21;46.80;;;29.50;;
57746;SDS011;43580;44.014;20.466;2022-10-18T03:31:47;47.35;;;24.25;;
57746;SDS011;43580;44.014;20.466;2022-10-18T03:34:13;42.40;;;24.58;;
57746;SDS011;43580;44.014;20.466;2022-10-18T03:36:42;48.40;;;29.33;;
57746;SDS011;43580;44.014;20.466;2022-10-18T03:39:15;44.20;;;27.38;;
57746;SDS011;43580;44.014;20.466;2022-10-18T03:41:41;50.80;;;31.38;;
57746;SDS011;43580;44.014;20.466;2022-10-18T03:44:07;45.13;;;28.77;;
57746;SDS011;43580;44.014;20.466;2022-10-18T03:46:33;42.42;;;26.38;;
57746;SDS011;43580;44.014;20.466;2022-10-18T03:48:59;40.15;;;22.27;;
57746;SDS011;43580;44.014;20.466;2022-10-18T03:51:26;50.50;;;30.70;;
57746;SDS011;43580;44.014;20.466;2022-10-18T03:53:52;43.70;;;27.33;;
57746;SDS011;43580;44.014;20.466;2022-10-18T03:56:20;91.43;;;63.38;;
57746;SDS011;43580;44.014;20.466;2022-10-18T03:58:46;56.80;;;32.35;;
57746;SDS011;43580;44.014;20.466;2022-10-18T04:01:12;37.22;;;21.95;;
57746;SDS011;43580;44.014;20.466;2022-10-18T04:03:38;69.15;;;33.72;;
57746;SDS011;43580;44.014;20.466;2022-10-18T04:06:04;82.72;;;44.33;;
57746;SDS011;43580;44.014;20.466;2022-10-18T04:08:31;47.88;;;27.90;;
57746;SDS011;43580;44.014;20.466;2022-10-18T04:11:06;45.03;;;26.88;;
57746;SDS011;43580;44.014;20.466;2022-10-18T04:13:37;38.10;;;21.35;;
57746;SDS011;43580;44.014;20.466;2022-10-18T04:16:03;76.32;;;43.85;;
57746;SDS011;43580;44.014;20.466;2022-10-18T04:18:29;56.08;;;34.90;;
57746;SDS011;43580;44.014;20.466;2022-10-18T04:20:55;47.28;;;29.05;;
57746;SDS011;43580;44.014;20.466;2022-10-18T04:23:22;37.75;;;23.58;;
57746;SDS011;43580;44.014;20.466;2022-10-18T04:25:48;51.33;;;32.53;;
57746;SDS011;43580;44.014;20.466;2022-10-18T04:28:19;54.92;;;37.17;;
57746;SDS011;43580;44.014;20.466;2022-10-18T04:30:49;46.92;;;34.20;;
57746;SDS011;43580;44.014;20.466;2022-10-18T04:33:15;41.08;;;24.63;;
57746;SDS011;43580;44.014;20.466;2022-10-18T04:35:41;37.33;;;22.95;;
57746;SDS011;43580;44.014;20.466;2022-10-18T04:38:07;45.05;;;23.83;;
57746;SDS011;43580;44.014;20.466;2022-10-18T04:40:36;53.00;;;27.65;;
57746;SDS011;43580;44.014;20.466;2022-10-18T04:43:02;47.35;;;25.95;;
57746;SDS011;43580;44.014;20.466;2022-10-18T04:45:28;47.45;;;26.13;;
57746;SDS011;43580;44.014;20.466;2022-10-18T04:47:54;33.13;;;19.23;;
57746;SDS011;43580;44.014;20.466;2022-10-18T04:50:20;36.35;;;19.08;;
57746;SDS011;43580;44.014;20.466;2022-10-18T04:52:46;42.85;;;20.23;;
57746;SDS011;43580;44.014;20.466;2022-10-18T04:55:12;38.20;;;20.08;;
57746;SDS011;43580;44.014;20.466;2022-10-18T04:57:38;37.10;;;20.23;;
57746;SDS011;43580;44.014;20.466;2022-10-18T05:00:12;30.15;;;19.02;;
57746;SDS011;43580;44.014;20.466;2022-10-18T05:02:38;39.58;;;23.17;;
57746;SDS011;43580;44.014;20.466;2022-10-18T05:05:04;44.08;;;24.70;;
57746;SDS011;43580;44.014;20.466;2022-10-18T05:07:32;42.75;;;26.08;;
57746;SDS011;43580;44.014;20.466;2022-10-18T05:09:58;43.30;;;26.00;;
57746;SDS011;43580;44.014;20.466;2022-10-18T05:12:24;50.55;;;26.88;;
57746;SDS011;43580;44.014;20.466;2022-10-18T05:14:50;51.83;;;29.75;;
57746;SDS011;43580;44.014;20.466;2022-10-18T05:17:16;47.75;;;28.73;;
57746;SDS011;43580;44.014;20.466;2022-10-18T05:19:42;56.88;;;29.58;;
57746;SDS011;43580;44.014;20.466;2022-10-18T05:22:08;46.03;;;27.50;;
57746;SDS011;43580;44.014;20.466;2022-10-18T05:24:35;62.35;;;31.95;;
57746;SDS011;43580;44.014;20.466;2022-10-18T05:27:01;74.03;;;38.25;;
57746;SDS011;43580;44.014;20.466;2022-10-18T05:29:27;119.95;;;58.33;;
57746;SDS011;43580;44.014;20.466;2022-10-18T05:31:53;60.78;;;34.22;;
57746;SDS011;43580;44.014;20.466;2022-10-18T05:34:19;58.22;;;31.52;;
57746;SDS011;43580;44.014;20.466;2022-10-18T05:36:45;53.53;;;33.63;;
57746;SDS011;43580;44.014;20.466;2022-10-18T05:39:13;65.03;;;35.22;;
57746;SDS011;43580;44.014;20.466;2022-10-18T05:41:39;63.00;;;35.22;;
57746;SDS011;43580;44.014;20.466;2022-10-18T05:44:06;134.60;;;61.30;;
57746;SDS011;43580;44.014;20.466;2022-10-18T05:46:32;114.50;;;48.00;;
57746;SDS011;43580;44.014;20.466;2022-10-18T05:48:58;127.97;;;46.95;;
57746;SDS011;43580;44.014;20.466;2022-10-18T05:51:26;132.90;;;57.60;;
57746;SDS011;43580;44.014;20.466;2022-10-18T05:53:53;151.88;;;87.55;;
57746;SDS011;43580;44.014;20.466;2022-10-18T05:56:19;96.15;;;47.72;;
57746;SDS011;43580;44.014;20.466;2022-10-18T05:58:48;96.45;;;43.45;;
57746;SDS011;43580;44.014;20.466;2022-10-18T06:01:14;73.53;;;35.30;;
57746;SDS011;43580;44.014;20.466;2022-10-18T06:03:43;73.65;;;37.00;;
57746;SDS011;43580;44.014;20.466;2022-10-18T06:06:09;76.43;;;41.67;;
57746;SDS011;43580;44.014;20.466;2022-10-18T06:08:36;70.63;;;37.53;;
57746;SDS011;43580;44.014;20.466;2022-10-18T06:11:05;59.92;;;33.40;;
57746;SDS011;43580;44.014;20.466;2022-10-18T06:13:32;72.18;;;35.38;;
57746;SDS011;43580;44.014;20.466;2022-10-18T06:15:58;80.45;;;38.78;;
57746;SDS011;43580;44.014;20.466;2022-10-18T06:18:24;75.13;;;36.28;;
57746;SDS011;43580;44.014;20.466;2022-10-18T06:20:57;73.30;;;36.53;;
57746;SDS011;43580;44.014;20.466;2022-10-18T06:23:23;78.05;;;36.53;;
57746;SDS011;43580;44.014;20.466;2022-10-18T06:25:52;77.82;;;36.47;;
57746;SDS011;43580;44.014;20.466;2022-10-18T06:28:18;64.72;;;35.95;;
57746;SDS011;43580;44.014;20.466;2022-10-18T06:30:44;70.50;;;40.25;;
57746;SDS011;43580;44.014;20.466;2022-10-18T06:33:10;69.40;;;43.28;;
57746;SDS011;43580;44.014;20.466;2022-10-18T06:35:36;87.57;;;52.67;;
57746;SDS011;43580;44.014;20.466;2022-10-18T06:38:02;124.88;;;71.97;;
57746;SDS011;43580;44.014;20.466;2022-10-18T06:40:30;117.97;;;67.10;;
57746;SDS011;43580;44.014;20.466;2022-10-18T06:43:02;107.88;;;63.13;;
57746;SDS011;43580;44.014;20.466;2022-10-18T06:45:31;93.40;;;55.55;;
57746;SDS011;43580;44.014;20.466;2022-10-18T06:47:59;89.68;;;54.20;;
57746;SDS011;43580;44.014;20.466;2022-10-18T06:50:26;81.53;;;51.97;;
57746;SDS011;43580;44.014;20.466;2022-10-18T06:52:52;82.53;;;50.90;;
57746;SDS011;43580;44.014;20.466;2022-10-18T06:55:18;71.43;;;45.63;;
57746;SDS011;43580;44.014;20.466;2022-10-18T06:57:44;45.75;;;27.88;;
57746;SDS011;43580;44.014;20.466;2022-10-18T07:00:10;52.00;;;30.52;;
57746;SDS011;43580;44.014;20.466;2022-10-18T07:02:36;44.35;;;29.15;;
57746;SDS011;43580;44.014;20.466;2022-10-18T07:05:05;43.92;;;25.70;;
57746;SDS011;43580;44.014;20.466;2022-10-18T07:07:31;44.08;;;23.38;;
57746;SDS011;43580;44.014;20.466;2022-10-18T07:09:57;42.97;;;22.90;;
57746;SDS011;43580;44.014;20.466;2022-10-18T07:12:23;36.00;;;22.92;;
57746;SDS011;43580;44.014;20.466;2022-10-18T07:14:49;35.38;;;23.42;;
57746;SDS011;43580;44.014;20.466;2022-10-18T07:17:19;35.42;;;22.00;;
57746;SDS011;43580;44.014;20.466;2022-10-18T07:19:45;37.50;;;21.15;;
57746;SDS011;43580;44.014;20.466;2022-10-18T07:22:11;40.08;;;22.83;;
57746;SDS011;43580;44.014;20.466;2022-10-18T07:24:37;31.20;;;19.60;;
57746;SDS011;43580;44.014;20.466;2022-10-18T07:27:03;29.95;;;18.50;;
57746;SDS011;43580;44.014;20.466;2022-10-18T07:29:29;27.85;;;18.98;;
57746;SDS011;43580;44.014;20.466;2022-10-18T07:31:56;30.70;;;17.80;;
57746;SDS011;43580;44.014;20.466;2022-10-18T07:34:22;29.30;;;19.10;;
57746;SDS011;43580;44.014;20.466;2022-10-18T07:36:48;27.88;;;17.05;;
57746;SDS011;43580;44.014;20.466;2022-10-18T07:39:14;26.15;;;13.70;;
57746;SDS011;43580;44.014;20.466;2022-10-18T07:41:40;17.98;;;12.95;;
57746;SDS011;43580;44.014;20.466;2022-10-18T07:44:06;23.80;;;13.25;;
57746;SDS011;43580;44.014;20.466;2022-10-18T07:46:33;21.83;;;12.90;;
57746;SDS011;43580;44.014;20.466;2022-10-18T07:48:59;17.27;;;12.13;;
57746;SDS011;43580;44.014;20.466;2022-10-18T07:51:25;20.15;;;12.80;;
57746;SDS011;43580;44.014;20.466;2022-10-18T07:53:52;17.75;;;12.63;;
57746;SDS011;43580;44.014;20.466;2022-10-18T07:56:18;20.23;;;12.32;;
57746;SDS011;43580;44.014;20.466;2022-10-18T07:58:51;19.70;;;11.90;;
57746;SDS011;43580;44.014;20.466;2022-10-18T08:01:18;18.92;;;11.85;;
57746;SDS011;43580;44.014;20.466;2022-10-18T08:03:45;19.17;;;13.32;;
57746;SDS011;43580;44.014;20.466;2022-10-18T08:06:14;27.40;;;18.38;;
57746;SDS011;43580;44.014;20.466;2022-10-18T08:08:42;19.75;;;13.63;;
57746;SDS011;43580;44.014;20.466;2022-10-18T08:11:09;18.90;;;12.52;;
57746;SDS011;43580;44.014;20.466;2022-10-18T08:13:36;27.85;;;16.52;;
57746;SDS011;43580;44.014;20.466;2022-10-18T08:16:03;25.65;;;12.73;;
57746;SDS011;43580;44.014;20.466;2022-10-18T08:18:30;18.90;;;10.82;;
57746;SDS011;43580;44.014;20.466;2022-10-18T08:20:58;26.05;;;14.95;;
57746;SDS011;43580;44.014;20.466;2022-10-18T08:23:24;19.48;;;12.50;;
57746;SDS011;43580;44.014;20.466;2022-10-18T08:25:50;17.40;;;11.65;;
57746;SDS011;43580;44.014;20.466;2022-10-18T08:28:16;14.90;;;6.97;;
57746;SDS011;43580;44.014;20.466;2022-10-18T08:30:42;16.88;;;11.82;;
57746;SDS011;43580;44.014;20.466;2022-10-18T08:33:09;21.65;;;16.00;;
57746;SDS011;43580;44.014;20.466;2022-10-18T08:35:35;18.15;;;11.57;;
57746;SDS011;43580;44.014;20.466;2022-10-18T08:38:01;15.80;;;9.73;;
57746;SDS011;43580;44.014;20.466;2022-10-18T08:40:27;20.42;;;8.82;;
57746;SDS011;43580;44.014;20.466;2022-10-18T08:45:37;16.35;;;10.20;;
57746;SDS011;43580;44.014;20.466;2022-10-18T08:48:05;19.17;;;11.93;;
57746;SDS011;43580;44.014;20.466;2022-10-18T08:50:33;20.98;;;14.20;;
57746;SDS011;43580;44.014;20.466;2022-10-18T08:53:15;14.57;;;9.00;;
57746;SDS011;43580;44.014;20.466;2022-10-18T08:55:48;15.85;;;9.68;;
57746;SDS011;43580;44.014;20.466;2022-10-18T08:58:21;14.20;;;9.00;;
57746;SDS011;43580;44.014;20.466;2022-10-18T09:03:20;13.60;;;8.63;;
57746;SDS011;43580;44.014;20.466;2022-10-18T09:05:54;14.00;;;9.23;;
57746;SDS011;43580;44.014;20.466;2022-10-18T09:11:10;28.30;;;18.15;;
57746;SDS011;43580;44.014;20.466;2022-10-18T09:16:49;20.85;;;13.10;;
57746;SDS011;43580;44.014;20.466;2022-10-18T09:22:06;39.42;;;30.67;;
57746;SDS011;43580;44.014;20.466;2022-10-18T09:27:16;19.65;;;12.30;;
57746;SDS011;43580;44.014;20.466;2022-10-18T09:35:26;12.55;;;8.68;;
57746;SDS011;43580;44.014;20.466;2022-10-18T09:37:54;16.80;;;9.63;;
57746;SDS011;43580;44.014;20.466;2022-10-18T09:40:25;14.20;;;8.23;;
57746;SDS011;43580;44.014;20.466;2022-10-18T09:43:00;15.27;;;8.75;;
57746;SDS011;43580;44.014;20.466;2022-10-18T09:45:38;14.48;;;7.50;;
57746;SDS011;43580;44.014;20.466;2022-10-18T09:55:55;18.13;;;12.52;;
57746;SDS011;43580;44.014;20.466;2022-10-18T09:58:24;13.85;;;7.32;;
57746;SDS011;43580;44.014;20.466;2022-10-18T10:00:51;12.25;;;7.35;;
57746;SDS011;43580;44.014;20.466;2022-10-18T10:03:17;15.10;;;8.52;;
57746;SDS011;43580;44.014;20.466;2022-10-18T10:05:44;16.45;;;10.30;;
57746;SDS011;43580;44.014;20.466;2022-10-18T10:08:10;10.68;;;7.63;;
57746;SDS011;43580;44.014;20.466;2022-10-18T10:10:37;14.77;;;7.68;;
57746;SDS011;43580;44.014;20.466;2022-10-18T10:15:36;13.45;;;6.82;;
57746;SDS011;43580;44.014;20.466;2022-10-18T10:18:03;16.35;;;7.97;;
57746;SDS011;43580;44.014;20.466;2022-10-18T10:23:02;19.02;;;11.85;;
57746;SDS011;43580;44.014;20.466;2022-10-18T10:25:30;16.63;;;9.75;;
57746;SDS011;43580;44.014;20.466;2022-10-18T10:28:04;17.35;;;10.75;;
57746;SDS011;43580;44.014;20.466;2022-10-18T10:30:35;17.23;;;9.30;;
57746;SDS011;43580;44.014;20.466;2022-10-18T10:33:02;12.80;;;8.05;;
57746;SDS011;43580;44.014;20.466;2022-10-18T10:37:55;11.82;;;7.80;;
57746;SDS011;43580;44.014;20.466;2022-10-18T10:40:28;12.40;;;6.25;;
57746;SDS011;43580;44.014;20.466;2022-10-18T10:48:50;12.50;;;6.25;;
57746;SDS011;43580;44.014;20.466;2022-10-18T10:51:29;12.02;;;7.13;;
57746;SDS011;43580;44.014;20.466;2022-10-18T10:53:57;11.07;;;6.95;;
57746;SDS011;43580;44.014;20.466;2022-10-18T10:56:31;14.80;;;7.25;;
57746;SDS011;43580;44.014;20.466;2022-10-18T10:59:06;11.63;;;6.75;;
57746;SDS011;43580;44.014;20.466;2022-10-18T11:01:33;16.23;;;7.10;;
57746;SDS011;43580;44.014;20.466;2022-10-18T11:04:22;12.15;;;7.40;;
57746;SDS011;43580;44.014;20.466;2022-10-18T11:07:47;11.77;;;7.55;;
57746;SDS011;43580;44.014;20.466;2022-10-18T11:14:58;19.47;;;10.13;;
57746;SDS011;43580;44.014;20.466;2022-10-18T11:19:54;17.42;;;11.07;;
57746;SDS011;43580;44.014;20.466;2022-10-18T11:24:51;14.23;;;7.47;;
57746;SDS011;43580;44.014;20.466;2022-10-18T11:27:24;18.13;;;9.15;;
57746;SDS011;43580;44.014;20.466;2022-10-18T11:40:08;11.88;;;7.93;;
57746;SDS011;43580;44.014;20.466;2022-10-18T11:43:24;12.98;;;8.68;;
57746;SDS011;43580;44.014;20.466;2022-10-18T11:50:52;14.50;;;6.90;;
57746;SDS011;43580;44.014;20.466;2022-10-18T12:06:06;10.70;;;7.10;;
57746;SDS011;43580;44.014;20.466;2022-10-18T12:08:41;14.57;;;8.20;;
57746;SDS011;43580;44.014;20.466;2022-10-18T12:11:13;13.32;;;7.85;;
57746;SDS011;43580;44.014;20.466;2022-10-18T12:16:09;12.13;;;8.07;;
57746;SDS011;43580;44.014;20.466;2022-10-18T12:18:48;17.10;;;10.93;;
57746;SDS011;43580;44.014;20.466;2022-10-18T12:21:18;12.82;;;8.85;;
57746;SDS011;43580;44.014;20.466;2022-10-18T12:23:55;19.35;;;9.40;;
57746;SDS011;43580;44.014;20.466;2022-10-18T12:26:23;18.33;;;10.15;;
57746;SDS011;43580;44.014;20.466;2022-10-18T12:31:21;13.88;;;8.23;;
57746;SDS011;43580;44.014;20.466;2022-10-18T12:33:50;14.98;;;8.63;;
57746;SDS011;43580;44.014;20.466;2022-10-18T12:38:48;13.85;;;7.90;;
57746;SDS011;43580;44.014;20.466;2022-10-18T12:43:49;15.07;;;8.35;;
57746;SDS011;43580;44.014;20.466;2022-10-18T12:46:16;15.07;;;9.63;;
57746;SDS011;43580;44.014;20.466;2022-10-18T12:48:43;16.40;;;9.55;;
57746;SDS011;43580;44.014;20.466;2022-10-18T12:53:42;12.90;;;7.78;;
57746;SDS011;43580;44.014;20.466;2022-10-18T13:09:37;15.40;;;7.40;;
57746;SDS011;43580;44.014;20.466;2022-10-18T13:20:14;11.73;;;7.70;;
57746;SDS011;43580;44.014;20.466;2022-10-18T13:28:02;11.52;;;7.43;;
57746;SDS011;43580;44.014;20.466;2022-10-18T13:46:18;12.30;;;7.32;;
57746;SDS011;43580;44.014;20.466;2022-10-18T13:48:45;19.95;;;11.95;;
57746;SDS011;43580;44.014;20.466;2022-10-18T13:56:50;11.43;;;7.85;;
57746;SDS011;43580;44.014;20.466;2022-10-18T14:01:59;12.45;;;9.38;;
57746;SDS011;43580;44.014;20.466;2022-10-18T14:06:53;13.43;;;9.65;;
57746;SDS011;43580;44.014;20.466;2022-10-18T14:09:25;16.90;;;11.02;;
57746;SDS011;43580;44.014;20.466;2022-10-18T14:12:37;22.35;;;10.63;;
57746;SDS011;43580;44.014;20.466;2022-10-18T14:17:24;16.85;;;11.45;;
57746;SDS011;43580;44.014;20.466;2022-10-18T14:25:34;22.92;;;11.70;;
57746;SDS011;43580;44.014;20.466;2022-10-18T14:28:13;15.48;;;9.98;;
57746;SDS011;43580;44.014;20.466;2022-10-18T14:33:30;20.48;;;10.45;;
57746;SDS011;43580;44.014;20.466;2022-10-18T14:36:01;14.07;;;9.70;;
57746;SDS011;43580;44.014;20.466;2022-10-18T14:38:28;20.77;;;11.27;;
57746;SDS011;43580;44.014;20.466;2022-10-18T14:41:12;18.77;;;10.48;;
57746;SDS011;43580;44.014;20.466;2022-10-18T14:43:39;16.08;;;10.45;;
57746;SDS011;43580;44.014;20.466;2022-10-18T14:46:24;19.95;;;10.52;;
57746;SDS011;43580;44.014;20.466;2022-10-18T14:48:58;34.05;;;12.82;;
57746;SDS011;43580;44.014;20.466;2022-10-18T14:51:25;21.40;;;12.68;;
57746;SDS011;43580;44.014;20.466;2022-10-18T14:53:52;25.77;;;12.75;;
57746;SDS011;43580;44.014;20.466;2022-10-18T14:56:22;16.17;;;10.85;;
57746;SDS011;43580;44.014;20.466;2022-10-18T14:58:48;22.23;;;12.27;;
57746;SDS011;43580;44.014;20.466;2022-10-18T15:01:17;20.58;;;11.90;;
57746;SDS011;43580;44.014;20.466;2022-10-18T15:03:43;23.65;;;12.77;;
57746;SDS011;43580;44.014;20.466;2022-10-18T15:06:18;21.80;;;12.57;;
57746;SDS011;43580;44.014;20.466;2022-10-18T15:08:45;23.55;;;12.95;;
57746;SDS011;43580;44.014;20.466;2022-10-18T15:11:13;28.52;;;16.23;;
57746;SDS011;43580;44.014;20.466;2022-10-18T15:14:22;25.98;;;14.63;;
57746;SDS011;43580;44.014;20.466;2022-10-18T15:16:32;27.92;;;18.50;;
57746;SDS011;43580;44.014;20.466;2022-10-18T15:21:33;25.10;;;13.35;;
57746;SDS011;43580;44.014;20.466;2022-10-18T15:24:27;24.10;;;13.07;;
57746;SDS011;43580;44.014;20.466;2022-10-18T15:26:54;20.88;;;14.73;;
57746;SDS011;43580;44.014;20.466;2022-10-18T15:29:22;24.98;;;17.42;;
57746;SDS011;43580;44.014;20.466;2022-10-18T15:31:49;19.77;;;14.88;;
57746;SDS011;43580;44.014;20.466;2022-10-18T15:34:20;25.95;;;15.40;;
57746;SDS011;43580;44.014;20.466;2022-10-18T15:36:47;27.30;;;16.35;;
57746;SDS011;43580;44.014;20.466;2022-10-18T15:39:21;25.33;;;15.77;;
57746;SDS011;43580;44.014;20.466;2022-10-18T15:46:40;29.02;;;17.42;;
57746;SDS011;43580;44.014;20.466;2022-10-18T15:51:55;47.35;;;27.48;;
57746;SDS011;43580;44.014;20.466;2022-10-18T15:54:40;44.65;;;26.00;;
57746;SDS011;43580;44.014;20.466;2022-10-18T15:57:09;48.30;;;26.25;;
57746;SDS011;43580;44.014;20.466;2022-10-18T15:59:35;37.22;;;23.70;;
57746;SDS011;43580;44.014;20.466;2022-10-18T16:02:09;43.33;;;24.92;;
57746;SDS011;43580;44.014;20.466;2022-10-18T16:04:36;51.55;;;30.75;;
57746;SDS011;43580;44.014;20.466;2022-10-18T16:07:02;48.53;;;30.77;;
57746;SDS011;43580;44.014;20.466;2022-10-18T16:09:28;51.38;;;29.25;;
57746;SDS011;43580;44.014;20.466;2022-10-18T16:11:54;50.58;;;29.98;;
57746;SDS011;43580;44.014;20.466;2022-10-18T16:14:22;59.10;;;30.40;;
57746;SDS011;43580;44.014;20.466;2022-10-18T16:16:49;49.83;;;28.48;;
57746;SDS011;43580;44.014;20.466;2022-10-18T16:19:16;51.38;;;32.92;;
57746;SDS011;43580;44.014;20.466;2022-10-18T16:21:46;52.92;;;28.83;;
57746;SDS011;43580;44.014;20.466;2022-10-18T16:24:13;49.20;;;29.52;;
57746;SDS011;43580;44.014;20.466;2022-10-18T16:26:41;43.95;;;30.65;;
57746;SDS011;43580;44.014;20.466;2022-10-18T16:29:19;44.67;;;32.38;;
57746;SDS011;43580;44.014;20.466;2022-10-18T16:31:48;51.90;;;32.35;;
57746;SDS011;43580;44.014;20.466;2022-10-18T16:34:15;54.72;;;31.73;;
57746;SDS011;43580;44.014;20.466;2022-10-18T16:36:41;60.83;;;33.75;;
57746;SDS011;43580;44.014;20.466;2022-10-18T16:39:13;56.17;;;34.33;;
57746;SDS011;43580;44.014;20.466;2022-10-18T16:41:39;70.30;;;42.60;;
57746;SDS011;43580;44.014;20.466;2022-10-18T16:44:08;74.50;;;49.58;;
57746;SDS011;43580;44.014;20.466;2022-10-18T16:46:34;92.75;;;59.55;;
57746;SDS011;43580;44.014;20.466;2022-10-18T16:49:00;90.22;;;52.75;;
57746;SDS011;43580;44.014;20.466;2022-10-18T16:51:29;101.65;;;62.33;;
57746;SDS011;43580;44.014;20.466;2022-10-18T16:53:55;112.60;;;64.90;;
57746;SDS011;43580;44.014;20.466;2022-10-18T16:56:23;108.00;;;62.00;;
57746;SDS011;43580;44.014;20.466;2022-10-18T16:58:52;153.93;;;79.13;;
57746;SDS011;43580;44.014;20.466;2022-10-18T17:01:19;115.38;;;66.75;;
57746;SDS011;43580;44.014;20.466;2022-10-18T17:03:46;97.32;;;54.53;;
57746;SDS011;43580;44.014;20.466;2022-10-18T17:06:22;80.75;;;49.28;;
57746;SDS011;43580;44.014;20.466;2022-10-18T17:08:49;84.93;;;49.13;;
57746;SDS011;43580;44.014;20.466;2022-10-18T17:11:15;96.32;;;59.28;;
57746;SDS011;43580;44.014;20.466;2022-10-18T17:13:42;103.75;;;65.15;;
57746;SDS011;43580;44.014;20.466;2022-10-18T17:18:43;115.30;;;67.30;;
57746;SDS011;43580;44.014;20.466;2022-10-18T17:21:09;138.85;;;72.78;;
57746;SDS011;43580;44.014;20.466;2022-10-18T17:23:35;178.70;;;90.25;;
57746;SDS011;43580;44.014;20.466;2022-10-18T17:26:01;140.50;;;84.03;;
57746;SDS011;43580;44.014;20.466;2022-10-18T17:28:27;247.35;;;101.80;;